Time;durP1;ratioP1;P1;durP2;ratioP2;P2;SDS_P1;SDS_P2;PMS_P1;PMS_P2;Temp;Humidity;BMP_temperature;BMP_pressure;BME280_temperature;BME280_humidity;BME280_pressure;Samples;Min_cycle;Max_cycle;Signal;HPM_P1;HPM_P2
2022/08/01 00:00:22;;;;;;;0.00;0.00;;;18.20;99.90;;;;;;5087301;28;20543;-79
2022/08/01 00:02:47;;;;;;;0.00;0.00;;;18.20;99.90;;;;;;5087345;28;20045;-79
2022/08/01 00:05:13;;;;;;;0.00;0.00;;;18.20;99.90;;;;;;5069549;28;20049;-79
2022/08/01 00:07:39;;;;;;;0.00;0.00;;;18.20;99.90;;;;;;5087058;28;20198;-79
2022/08/01 00:10:10;;;;;;;0.00;0.00;;;18.20;99.90;;;;;;5086873;28;20127;-79
2022/08/01 00:12:36;;;;;;;0.00;0.00;;;18.20;99.90;;;;;;5070852;28;20049;-79
2022/08/01 00:15:02;;;;;;;0.00;0.00;;;18.20;99.90;;;;;;5087016;28;20044;-79
2022/08/01 00:17:28;;;;;;;0.00;0.00;;;18.20;99.90;;;;;;5070509;28;20146;-79
2022/08/01 00:19:54;;;;;;;0.20;0.10;;;18.20;99.90;;;;;;5086977;28;20114;-79
2022/08/01 00:22:19;;;;;;;0.00;0.00;;;18.20;99.90;;;;;;5087037;28;20047;-79
2022/08/01 00:24:45;;;;;;;0.00;0.00;;;18.20;99.90;;;;;;5087424;28;20481;-79
2022/08/01 00:27:11;;;;;;;0.00;0.00;;;18.20;99.90;;;;;;5086847;28;20076;-78
2022/08/01 00:29:36;;;;;;;0.00;0.00;;;18.20;99.90;;;;;;5069534;28;20384;-78
2022/08/01 00:32:02;;;;;;;0.00;0.00;;;18.20;99.90;;;;;;5086759;28;20037;-78
2022/08/01 00:34:28;;;;;;;0.00;0.00;;;18.20;99.90;;;;;;5086720;28;20048;-78
2022/08/01 00:36:53;;;;;;;0.00;0.00;;;18.10;99.90;;;;;;5086500;28;20049;-78
2022/08/01 00:39:19;;;;;;;0.10;0.10;;;18.20;99.90;;;;;;5069537;28;20053;-78
2022/08/01 00:41:44;;;;;;;0.00;0.00;;;18.20;99.90;;;;;;5069502;28;20533;-79
2022/08/01 00:44:10;;;;;;;0.00;0.00;;;18.10;99.90;;;;;;5086650;28;20071;-78
2022/08/01 00:46:36;;;;;;;0.00;0.00;;;18.20;99.90;;;;;;5086601;28;20147;-78
2022/08/01 00:49:02;;;;;;;0.00;0.00;;;18.10;99.90;;;;;;5069425;28;20049;-79
2022/08/01 00:51:27;;;;;;;0.00;0.00;;;18.10;99.90;;;;;;5086548;28;20049;-78
2022/08/01 00:53:54;;;;;;;0.00;0.00;;;18.10;99.90;;;;;;5071013;28;20052;-79
2022/08/01 00:56:21;;;;;;;0.00;0.00;;;18.20;99.90;;;;;;5091012;28;20148;-79
2022/08/01 00:58:47;;;;;;;0.00;0.00;;;18.10;99.90;;;;;;5074148;28;20388;-79
2022/08/01 01:01:13;;;;;;;0.00;0.00;;;18.20;99.90;;;;;;5090730;28;20077;-79
2022/08/01 01:03:39;;;;;;;0.00;0.00;;;18.20;99.90;;;;;;5090959;28;20045;-79
2022/08/01 01:06:19;;;;;;;0.00;0.00;;;18.10;99.90;;;;;;5073297;28;20382;-79
2022/08/01 01:09:16;;;;;;;0.00;0.00;;;18.10;99.90;;;;;;5074412;28;20055;-79
2022/08/01 01:11:49;;;;;;;0.00;0.00;;;18.10;99.90;;;;;;5073826;28;20091;-79
2022/08/01 01:14:33;;;;;;;0.00;0.00;;;18.20;99.90;;;;;;5090327;28;20132;-79
2022/08/01 01:17:02;;;;;;;0.00;0.00;;;18.10;99.90;;;;;;5091058;28;20041;-79
2022/08/01 01:19:32;;;;;;;0.10;0.10;;;18.10;99.90;;;;;;5073496;28;20098;-79
2022/08/01 01:22:19;;;;;;;0.10;0.10;;;18.10;99.90;;;;;;5090572;28;20489;-79
2022/08/01 01:25:05;;;;;;;0.00;0.00;;;18.10;99.90;;;;;;5090466;28;20110;-79
2022/08/01 01:27:49;;;;;;;0.00;0.00;;;18.10;99.90;;;;;;5090608;28;20045;-79
2022/08/01 01:30:15;;;;;;;0.00;0.00;;;18.10;99.90;;;;;;5073630;28;20136;-79
2022/08/01 01:32:44;;;;;;;0.00;0.00;;;18.10;99.90;;;;;;5090150;28;20041;-79
2022/08/01 01:35:16;;;;;;;0.00;0.00;;;18.10;99.90;;;;;;5090000;28;20060;-79
2022/08/01 01:37:45;;;;;;;0.00;0.00;;;18.10;99.90;;;;;;5090398;28;20059;-79
2022/08/01 01:40:12;;;;;;;0.00;0.00;;;18.10;99.90;;;;;;5056285;28;20481;-79
2022/08/01 01:42:39;;;;;;;0.00;0.00;;;18.00;99.90;;;;;;5089917;28;20049;-79
2022/08/01 01:45:06;;;;;;;0.00;0.00;;;18.00;99.90;;;;;;5090182;28;20139;-80
2022/08/01 01:47:33;;;;;;;0.05;0.00;;;18.00;99.90;;;;;;5090276;28;20041;-79
2022/08/01 01:50:01;;;;;;;0.00;0.00;;;18.00;99.90;;;;;;5089696;28;20083;-80
2022/08/01 01:52:29;;;;;;;0.00;0.00;;;18.00;99.90;;;;;;5073240;28;20397;-80
2022/08/01 01:54:56;;;;;;;0.00;0.00;;;17.90;99.90;;;;;;5089708;28;20135;-80
2022/08/01 01:57:23;;;;;;;0.00;0.00;;;18.00;99.90;;;;;;5089690;28;20045;-80
2022/08/01 01:59:51;;;;;;;0.00;0.00;;;17.90;99.90;;;;;;5072754;28;20049;-80
2022/08/01 02:02:18;;;;;;;0.00;0.00;;;17.90;99.90;;;;;;5072977;28;20152;-80
2022/08/01 02:04:46;;;;;;;0.00;0.00;;;17.90;99.90;;;;;;5072572;28;20065;-80
2022/08/01 02:07:17;;;;;;;0.00;0.00;;;18.00;99.90;;;;;;5072251;28;20072;-80
2022/08/01 02:09:45;;;;;;;0.00;0.00;;;17.90;99.90;;;;;;5038852;28;20499;-80
2022/08/01 02:12:12;;;;;;;0.00;0.00;;;18.00;99.90;;;;;;5072564;28;20065;-80
2022/08/01 02:14:42;;;;;;;0.00;0.00;;;17.90;99.90;;;;;;5089238;28;20642;-80
2022/08/01 02:17:11;;;;;;;0.00;0.00;;;17.90;99.90;;;;;;5072424;28;20067;-80
2022/08/01 02:19:38;;;;;;;0.52;0.08;;;17.90;99.90;;;;;;5072262;28;20389;-80
2022/08/01 02:22:13;;;;;;;0.00;0.00;;;17.90;99.90;;;;;;5089488;28;20091;-80
2022/08/01 02:24:54;;;;;;;0.00;0.00;;;17.90;99.90;;;;;;5072363;28;20053;-80
2022/08/01 02:27:45;;;;;;;0.00;0.00;;;17.90;99.90;;;;;;5089180;28;20485;-80
2022/08/01 02:30:15;;;;;;;0.00;0.00;;;17.90;99.90;;;;;;5072461;28;20033;-80
2022/08/01 02:32:49;;;;;;;0.00;0.00;;;17.90;99.90;;;;;;5071987;28;20051;-80
2022/08/01 02:35:28;;;;;;;0.00;0.00;;;17.90;99.90;;;;;;5089269;28;20049;-79
2022/08/01 02:37:57;;;;;;;0.00;0.00;;;17.90;99.90;;;;;;5088573;28;20535;-79
2022/08/01 02:40:23;;;;;;;0.00;0.00;;;17.80;99.90;;;;;;5071945;28;20049;-79
2022/08/01 02:42:54;;;;;;;0.00;0.00;;;17.90;99.90;;;;;;5071912;28;20103;-79
2022/08/01 02:45:24;;;;;;;0.00;0.00;;;17.90;99.90;;;;;;5071896;28;20065;-79
2022/08/01 02:47:53;;;;;;;0.00;0.00;;;17.90;99.90;;;;;;5089022;28;20075;-79
2022/08/01 02:50:20;;;;;;;0.00;0.00;;;17.80;99.90;;;;;;5054885;28;20436;-79
2022/08/01 02:52:49;;;;;;;2.63;0.40;;;17.80;99.90;;;;;;5071674;28;20508;-79
2022/08/01 02:55:15;;;;;;;0.00;0.00;;;17.80;99.90;;;;;;5089192;28;20072;-79
2022/08/01 02:57:43;;;;;;;0.00;0.00;;;17.80;99.90;;;;;;5088441;28;20504;-79
2022/08/01 03:00:10;;;;;;;0.00;0.00;;;17.80;99.90;;;;;;5088399;28;20049;-79
2022/08/01 03:02:36;;;;;;;0.00;0.00;;;17.80;99.90;;;;;;5088061;28;20171;-79
2022/08/01 03:05:03;;;;;;;0.03;0.03;;;17.80;99.90;;;;;;5087639;28;20060;-79
2022/08/01 03:07:29;;;;;;;0.00;0.00;;;17.70;99.90;;;;;;5088880;28;20073;-79
2022/08/01 03:09:57;;;;;;;0.00;0.00;;;17.70;99.90;;;;;;5087632;28;20477;-79
2022/08/01 03:12:27;;;;;;;0.00;0.00;;;17.70;99.90;;;;;;5088080;28;20362;-79
2022/08/01 03:14:56;;;;;;;0.00;0.00;;;17.70;99.90;;;;;;5071290;28;20497;-79
2022/08/01 03:17:25;;;;;;;0.00;0.00;;;17.80;99.90;;;;;;5087116;28;20041;-79
2022/08/01 03:19:52;;;;;;;0.10;0.00;;;17.70;99.90;;;;;;5087801;28;20049;-80
2022/08/01 03:22:21;;;;;;;0.00;0.00;;;17.70;99.90;;;;;;5054535;28;20045;-80
2022/08/01 03:24:51;;;;;;;0.00;0.00;;;17.70;99.90;;;;;;5088491;28;20510;-79
2022/08/01 03:27:19;;;;;;;0.00;0.00;;;17.70;99.90;;;;;;5087919;28;20045;-79
2022/08/01 03:29:45;;;;;;;0.00;0.00;;;17.70;99.90;;;;;;5087807;28;20045;-80
2022/08/01 03:32:12;;;;;;;0.00;0.00;;;17.70;99.90;;;;;;5087800;28;20049;-80
2022/08/01 03:34:38;;;;;;;0.00;0.00;;;17.60;99.90;;;;;;5070881;28;20075;-80
2022/08/01 03:37:20;;;;;;;0.00;0.00;;;17.60;99.90;;;;;;5088252;28;20500;-80
2022/08/01 03:39:54;;;;;;;0.00;0.00;;;17.60;99.90;;;;;;5071257;28;20362;-80
2022/08/01 03:42:28;;;;;;;0.00;0.00;;;17.70;99.90;;;;;;5070687;28;20142;-80
2022/08/01 03:44:56;;;;;;;;;;;17.70;99.90;;;;;;5089163;28;20080;-79
2022/08/01 03:47:29;;;;;;;0.00;0.00;;;17.60;99.90;;;;;;5087458;28;19921;-80
2022/08/01 03:49:56;;;;;;;0.00;0.00;;;17.70;99.90;;;;;;5087830;28;20041;-80
2022/08/01 03:52:22;;;;;;;0.00;0.00;;;17.70;99.90;;;;;;5070650;28;20411;-80
2022/08/01 03:54:51;;;;;;;0.00;0.00;;;17.60;99.90;;;;;;5087823;28;20485;-80
2022/08/01 03:57:17;;;;;;;0.00;0.00;;;17.60;99.90;;;;;;5071099;28;20056;-80
2022/08/01 03:59:44;;;;;;;0.00;0.00;;;17.60;99.90;;;;;;5087220;28;20052;-80
2022/08/01 04:02:11;;;;;;;0.00;0.00;;;17.60;99.90;;;;;;5087579;28;20056;-80
2022/08/01 04:04:37;;;;;;;0.00;0.00;;;17.60;99.90;;;;;;5070241;28;20505;-80
2022/08/01 04:07:06;;;;;;;0.00;0.00;;;17.60;99.90;;;;;;5086876;28;20044;-80
2022/08/01 04:09:31;;;;;;;0.00;0.00;;;17.60;99.90;;;;;;5069816;28;20139;-80
2022/08/01 04:11:59;;;;;;;0.00;0.00;;;17.70;99.90;;;;;;5087119;28;20433;-80
2022/08/01 04:14:26;;;;;;;0.00;0.00;;;17.60;99.90;;;;;;5087236;28;20080;-80
2022/08/01 04:16:52;;;;;;;0.00;0.00;;;17.70;99.90;;;;;;5087189;28;20044;-80
2022/08/01 04:19:17;;;;;;;0.00;0.00;;;17.60;99.90;;;;;;5070141;28;20045;-80
2022/08/01 04:21:43;;;;;;;0.00;0.00;;;17.60;99.90;;;;;;5086662;28;20052;-80
2022/08/01 04:24:18;;;;;;;0.00;0.00;;;17.60;99.90;;;;;;5086682;28;20045;-80
2022/08/01 04:26:46;;;;;;;0.00;0.00;;;17.60;99.90;;;;;;5069702;28;20084;-80
2022/08/01 04:29:15;;;;;;;0.00;0.00;;;17.60;99.90;;;;;;5086635;28;20041;-80
2022/08/01 04:31:44;;;;;;;0.13;0.10;;;17.60;99.90;;;;;;5070162;28;20063;-80
2022/08/01 04:34:14;;;;;;;0.00;0.00;;;17.50;99.90;;;;;;5086672;28;20633;-80
2022/08/01 04:36:41;;;;;;;0.00;0.00;;;17.50;99.90;;;;;;5086477;28;20049;-80
2022/08/01 04:39:08;;;;;;;0.00;0.00;;;17.60;99.90;;;;;;5087456;28;20500;-80
2022/08/01 04:41:36;;;;;;;0.00;0.00;;;17.50;99.90;;;;;;5069936;28;20052;-80
2022/08/01 04:44:02;;;;;;;0.00;0.00;;;17.50;99.90;;;;;;5069523;28;20061;-80
2022/08/01 04:46:29;;;;;;;0.00;0.00;;;17.50;99.90;;;;;;5086950;28;20119;-80
2022/08/01 04:48:55;;;;;;;0.00;0.00;;;17.50;99.90;;;;;;5053133;28;20048;-80
2022/08/01 04:51:24;;;;;;;0.00;0.00;;;17.60;99.90;;;;;;5086601;28;20052;-80
2022/08/01 04:53:50;;;;;;;0.00;0.00;;;17.50;99.90;;;;;;5086662;28;20049;-81
2022/08/01 04:56:16;;;;;;;0.00;0.00;;;17.50;99.90;;;;;;5086689;28;20048;-81
2022/08/01 04:58:43;;;;;;;0.00;0.00;;;17.50;99.90;;;;;;5069869;28;20049;-81
2022/08/01 05:01:10;;;;;;;0.00;0.00;;;17.50;99.90;;;;;;5069619;28;20507;-81
2022/08/01 05:03:36;;;;;;;0.00;0.00;;;17.60;99.90;;;;;;5069602;28;20071;-81
2022/08/01 05:06:02;;;;;;;0.00;0.00;;;17.60;99.90;;;;;;5069207;28;20492;-81
2022/08/01 05:08:29;;;;;;;0.00;0.00;;;17.60;99.90;;;;;;5085913;28;20045;-80
2022/08/01 05:10:55;;;;;;;0.00;0.00;;;17.60;99.90;;;;;;5069241;28;20493;-80
2022/08/01 05:13:20;;;;;;;0.00;0.00;;;17.60;99.90;;;;;;5086159;28;20051;-80
2022/08/01 05:15:46;;;;;;;0.00;0.00;;;17.60;99.90;;;;;;5086211;28;20052;-80
2022/08/01 05:18:12;;;;;;;0.00;0.00;;;17.60;99.90;;;;;;5085849;28;20403;-80
2022/08/01 05:20:38;;;;;;;0.00;0.00;;;17.60;99.90;;;;;;5086352;28;20102;-80
2022/08/01 05:23:04;;;;;;;0.00;0.00;;;17.60;99.90;;;;;;5069006;28;20489;-80
2022/08/01 05:25:30;;;;;;;0.00;0.00;;;17.60;99.90;;;;;;5085830;28;20053;-80
2022/08/01 05:27:56;;;;;;;0.00;0.00;;;17.60;99.90;;;;;;5068872;28;20057;-80
2022/08/01 05:30:21;;;;;;;0.25;0.25;;;17.70;99.90;;;;;;5068501;28;20128;-80
2022/08/01 05:32:47;;;;;;;0.00;0.00;;;17.70;99.90;;;;;;5052054;28;20045;-80
2022/08/01 05:35:13;;;;;;;0.00;0.00;;;17.70;99.90;;;;;;5068803;28;20052;-81
2022/08/01 05:37:38;;;;;;;0.00;0.00;;;17.70;99.90;;;;;;5068994;28;20041;-81
2022/08/01 05:40:05;;;;;;;0.00;0.00;;;17.70;99.90;;;;;;5085539;28;20072;-81
2022/08/01 05:42:31;;;;;;;0.00;0.00;;;17.70;99.90;;;;;;5072251;28;20147;-81
2022/08/01 05:44:56;;;;;;;0.00;0.00;;;17.70;99.90;;;;;;5089482;28;20127;-81
2022/08/01 05:47:22;;;;;;;0.00;0.00;;;17.70;99.90;;;;;;5072466;28;20485;-81
2022/08/01 05:49:47;;;;;;;0.75;0.10;;;17.60;99.90;;;;;;5088759;28;20127;-81
2022/08/01 05:52:13;;;;;;;0.00;0.00;;;17.60;99.90;;;;;;5089323;28;20071;-81
2022/08/01 05:54:39;;;;;;;0.00;0.00;;;17.50;99.90;;;;;;5089295;28;20075;-81
2022/08/01 05:57:05;;;;;;;0.00;0.00;;;17.60;99.90;;;;;;5072492;28;20036;-80
2022/08/01 05:59:31;;;;;;;0.47;0.08;;;17.60;99.90;;;;;;5089316;28;20049;-80
2022/08/01 06:01:57;;;;;;;0.00;0.00;;;17.50;99.90;;;;;;5089096;28;20041;-80
2022/08/01 06:04:23;;;;;;;0.00;0.00;;;17.40;99.90;;;;;;5089178;28;20052;-80
2022/08/01 06:06:49;;;;;;;0.00;0.00;;;17.40;99.90;;;;;;5072002;28;20053;-80
2022/08/01 06:09:14;;;;;;;0.00;0.00;;;17.40;99.90;;;;;;5088837;28;20109;-80
2022/08/01 06:11:40;;;;;;;0.00;0.00;;;17.40;99.90;;;;;;5089030;28;20080;-80
2022/08/01 06:14:06;;;;;;;0.00;0.00;;;17.40;99.90;;;;;;5088866;28;20041;-80
2022/08/01 06:16:32;;;;;;;0.00;0.00;;;17.40;99.90;;;;;;5071925;28;20545;-80
2022/08/01 06:18:57;;;;;;;0.00;0.00;;;17.50;99.90;;;;;;5072222;28;20044;-80
2022/08/01 06:21:23;;;;;;;0.00;0.00;;;17.60;99.90;;;;;;5088954;28;20045;-80
2022/08/01 06:23:49;;;;;;;0.00;0.00;;;17.70;99.90;;;;;;5071911;28;20056;-80
2022/08/01 06:26:17;;;;;;;0.00;0.00;;;17.90;99.90;;;;;;5088899;28;20049;-80
2022/08/01 06:28:43;;;;;;;0.00;0.00;;;17.90;99.90;;;;;;5088617;28;20424;-80
2022/08/01 06:31:11;;;;;;;0.00;0.00;;;17.90;99.90;;;;;;5088897;28;20049;-80
2022/08/01 06:33:36;;;;;;;0.00;0.00;;;17.90;99.90;;;;;;5088886;28;20052;-80
2022/08/01 06:36:03;;;;;;;0.00;0.00;;;18.00;99.90;;;;;;5088798;28;20087;-80
2022/08/01 06:38:28;;;;;;;0.15;0.15;;;18.00;99.90;;;;;;5088596;28;20374;-80
2022/08/01 06:40:54;;;;;;;0.10;0.10;;;18.10;99.90;;;;;;5088875;28;20048;-80
2022/08/01 06:43:21;;;;;;;0.00;0.00;;;18.10;99.90;;;;;;5088597;28;20058;-80
2022/08/01 06:45:46;;;;;;;10.43;0.90;;;18.10;99.90;;;;;;5055172;28;20106;-80
2022/08/01 06:48:12;;;;;;;0.00;0.00;;;18.00;99.90;;;;;;5088351;28;20037;-80
2022/08/01 06:50:38;;;;;;;0.00;0.00;;;18.00;99.90;;;;;;5071427;28;20064;-79
2022/08/01 06:53:04;;;;;;;0.43;0.20;;;18.00;99.90;;;;;;5088209;28;20037;-80
2022/08/01 06:55:30;;;;;;;0.00;0.00;;;18.00;99.90;;;;;;5071647;28;20178;-80
2022/08/01 06:57:56;;;;;;;0.00;0.00;;;18.00;99.90;;;;;;5088085;28;20098;-79
2022/08/01 07:00:24;;;;;;;0.00;0.00;;;18.10;99.90;;;;;;5088191;28;20389;-79
2022/08/01 07:02:54;;;;;;;0.00;0.00;;;18.10;99.90;;;;;;5088057;28;20060;-79
2022/08/01 07:05:21;;;;;;;0.00;0.00;;;18.30;99.90;;;;;;5088137;28;20060;-79
2022/08/01 07:07:46;;;;;;;0.00;0.00;;;18.40;99.90;;;;;;5071647;28;20061;-79
2022/08/01 07:10:12;;;;;;;0.00;0.00;;;18.40;99.90;;;;;;5070950;28;20047;-79
2022/08/01 07:12:39;;;;;;;0.00;0.00;;;18.40;99.90;;;;;;5071202;28;20131;-80
2022/08/01 07:15:05;;;;;;;0.00;0.00;;;18.40;99.90;;;;;;5087962;28;20044;-80
2022/08/01 07:17:31;;;;;;;0.28;0.28;;;18.40;99.90;;;;;;5087390;28;20045;-80
2022/08/01 07:19:57;;;;;;;0.00;0.00;;;18.30;99.90;;;;;;5071280;28;20048;-79
2022/08/01 07:22:22;;;;;;;0.10;0.10;;;18.40;99.90;;;;;;5087909;28;20083;-80
2022/08/01 07:24:48;;;;;;;0.00;0.00;;;18.30;99.90;;;;;;5087906;28;20044;-80
2022/08/01 07:27:14;;;;;;;0.00;0.00;;;18.40;99.90;;;;;;5087739;28;20094;-80
2022/08/01 07:29:39;;;;;;;0.32;0.32;;;18.40;99.90;;;;;;5087545;28;20036;-80
2022/08/01 07:32:05;;;;;;;0.05;0.05;;;18.40;99.90;;;;;;5070390;28;20147;-80
2022/08/01 07:34:31;;;;;;;1.77;0.47;;;18.50;99.90;;;;;;5070995;28;20088;-80
2022/08/01 07:36:57;;;;;;;0.77;0.47;;;18.50;99.90;;;;;;5087899;28;20598;-80
2022/08/01 07:39:22;;;;;;;0.00;0.00;;;18.60;99.90;;;;;;5087207;28;20132;-80
2022/08/01 07:41:48;;;;;;;0.00;0.00;;;18.60;99.90;;;;;;5087384;28;20052;-80
2022/08/01 07:44:14;;;;;;;0.20;0.20;;;18.70;99.90;;;;;;5086887;28;20116;-80
2022/08/01 07:46:39;;;;;;;0.08;0.08;;;18.70;99.90;;;;;;5071316;28;20087;-80
2022/08/01 07:49:05;;;;;;;0.00;0.00;;;18.70;99.90;;;;;;5070312;28;20440;-80
2022/08/01 07:51:31;;;;;;;0.00;0.00;;;18.90;99.90;;;;;;5070420;28;20052;-80
2022/08/01 07:53:56;;;;;;;0.00;0.00;;;18.80;99.90;;;;;;5087191;28;20393;-80
2022/08/01 07:56:23;;;;;;;0.00;0.00;;;18.90;99.90;;;;;;5070138;28;20480;-80
2022/08/01 07:58:50;;;;;;;0.00;0.00;;;18.90;99.90;;;;;;5070198;28;20049;-80
2022/08/01 08:01:15;;;;;;;1.35;0.32;;;18.90;99.90;;;;;;5070098;28;20044;-80
2022/08/01 08:03:41;;;;;;;0.00;0.00;;;18.90;99.90;;;;;;5086276;28;20048;-80
2022/08/01 08:06:06;;;;;;;0.40;0.22;;;18.90;99.90;;;;;;5086158;28;20045;-80
2022/08/01 08:08:34;;;;;;;0.00;0.00;;;18.90;99.90;;;;;;5036523;28;20060;-80
2022/08/01 08:11:00;;;;;;;0.00;0.00;;;18.90;99.90;;;;;;5086661;28;20128;-80
2022/08/01 08:13:26;;;;;;;0.00;0.00;;;19.00;99.90;;;;;;5086651;28;20476;-80
2022/08/01 08:15:52;;;;;;;0.00;0.00;;;19.00;99.90;;;;;;5087233;28;20052;-80
2022/08/01 08:18:18;;;;;;;0.00;0.00;;;19.00;99.90;;;;;;5069859;28;20045;-80
2022/08/01 08:20:44;;;;;;;0.00;0.00;;;19.10;99.90;;;;;;5086645;28;20094;-80
2022/08/01 08:25:54;;;;;;;0.00;0.00;;;19.00;99.90;;;;;;5086760;28;20049;-80
2022/08/01 08:28:20;;;;;;;0.00;0.00;;;19.20;99.90;;;;;;5086398;28;20081;-80
2022/08/01 08:30:45;;;;;;;0.00;0.00;;;19.20;99.90;;;;;;5086556;28;20127;-80
2022/08/01 08:33:11;;;;;;;0.00;0.00;;;19.30;99.90;;;;;;5069510;28;20198;-80
2022/08/01 08:35:40;;;;;;;1.85;0.30;;;19.40;99.90;;;;;;5069853;28;20061;-80
2022/08/01 08:38:06;;;;;;;0.00;0.00;;;19.50;99.90;;;;;;5069617;28;20041;-80
2022/08/01 08:40:34;;;;;;;1.77;0.45;;;19.60;99.90;;;;;;5086258;28;20044;-80
2022/08/01 08:43:01;;;;;;;0.00;0.00;;;19.70;99.90;;;;;;5070027;28;20156;-80
2022/08/01 08:45:27;;;;;;;0.00;0.00;;;19.60;99.90;;;;;;5086245;28;20056;-80
2022/08/01 08:47:54;;;;;;;0.00;0.00;;;19.60;99.90;;;;;;5069579;28;20392;-80
2022/08/01 08:50:20;;;;;;;2.08;0.38;;;19.70;99.90;;;;;;5068869;28;20056;-80
2022/08/01 08:52:48;;;;;;;0.00;0.00;;;19.70;99.90;;;;;;5069123;28;20099;-80
2022/08/01 08:55:16;;;;;;;0.00;0.00;;;19.80;99.90;;;;;;5086364;28;20099;-80
2022/08/01 08:57:44;;;;;;;1.55;0.35;;;19.80;99.90;;;;;;5086710;28;20473;-80
2022/08/01 09:00:11;;;;;;;0.15;0.15;;;20.00;99.90;;;;;;5069663;28;20071;-80
2022/08/01 09:02:42;;;;;;;0.00;0.00;;;20.00;99.90;;;;;;5069706;28;20041;-80
2022/08/01 09:05:09;;;;;;;0.03;0.00;;;20.20;99.90;;;;;;5069360;28;20053;-80
2022/08/01 09:07:34;;;;;;;0.70;0.25;;;20.30;99.90;;;;;;5086386;28;20087;-80
2022/08/01 09:10:00;;;;;;;0.00;0.00;;;20.30;99.90;;;;;;5085774;28;20045;-80
2022/08/01 09:12:25;;;;;;;0.00;0.00;;;20.40;99.90;;;;;;5085883;28;20148;-80
2022/08/01 09:14:53;;;;;;;0.82;0.30;;;20.50;99.90;;;;;;5069601;28;20064;-80
2022/08/01 09:17:19;;;;;;;0.00;0.00;;;20.50;99.90;;;;;;5072934;28;20499;-80
2022/08/01 09:19:54;;;;;;;0.00;0.00;;;20.60;99.90;;;;;;5090178;28;20053;-80
2022/08/01 09:22:22;;;;;;;0.22;0.10;;;20.70;99.90;;;;;;5090828;28;20052;-80
2022/08/01 09:25:09;;;;;;;0.95;0.45;;;20.70;99.90;;;;;;5090097;28;20515;-80
2022/08/01 09:27:40;;;;;;;0.03;0.00;;;20.70;99.90;;;;;;5089914;28;20041;-80
2022/08/01 09:30:18;;;;;;;0.10;0.00;;;20.70;99.90;;;;;;5072902;28;20073;-80
2022/08/01 09:32:55;;;;;;;0.00;0.00;;;20.70;99.90;;;;;;5073306;28;20099;-80
2022/08/01 09:35:29;;;;;;;0.80;0.45;;;20.70;99.90;;;;;;5072792;28;20063;-80
2022/08/01 09:38:15;;;;;;;0.00;0.00;;;20.70;99.90;;;;;;5089486;28;20052;-80
2022/08/01 09:40:46;;;;;;;0.00;0.00;;;20.70;99.90;;;;;;5089739;28;20506;-80
2022/08/01 09:43:12;;;;;;;0.00;0.00;;;20.60;99.90;;;;;;5072883;28;20049;-80
2022/08/01 09:45:37;;;;;;;0.00;0.00;;;20.60;99.90;;;;;;5089674;28;20037;-80
2022/08/01 09:48:08;;;;;;;0.00;0.00;;;20.60;99.90;;;;;;5089942;28;20037;-80
2022/08/01 09:50:45;;;;;;;0.00;0.00;;;20.80;99.90;;;;;;5089285;28;20416;-80
2022/08/01 09:53:11;;;;;;;2.42;0.47;;;20.90;99.90;;;;;;5089329;28;20037;-80
2022/08/01 09:55:38;;;;;;;0.30;0.17;;;21.00;99.90;;;;;;5089600;28;20037;-79
2022/08/01 09:58:04;;;;;;;0.08;0.03;;;20.90;99.90;;;;;;5072810;28;20392;-80
2022/08/01 10:00:32;;;;;;;0.88;0.30;;;20.90;99.90;;;;;;5072575;28;20147;-80
2022/08/01 10:02:59;;;;;;;0.00;0.00;;;20.90;99.90;;;;;;5072403;28;20102;-80
2022/08/01 10:05:35;;;;;;;0.00;0.00;;;21.00;99.90;;;;;;5072389;28;20052;-80
2022/08/01 10:08:04;;;;;;;0.10;0.10;;;21.20;99.90;;;;;;5089099;28;20103;-80
2022/08/01 10:10:31;;;;;;;1.13;0.28;;;21.30;99.90;;;;;;5072152;28;20522;-80
2022/08/01 10:12:58;;;;;;;0.17;0.17;;;21.40;99.90;;;;;;5089158;28;20481;-80
2022/08/01 10:15:25;;;;;;;0.00;0.00;;;21.50;99.90;;;;;;5072442;28;20065;-80
2022/08/01 10:17:56;;;;;;;0.00;0.00;;;21.50;99.90;;;;;;5072367;28;20052;-80
2022/08/01 10:20:28;;;;;;;0.03;0.03;;;21.60;99.90;;;;;;5072364;28;20102;-80
2022/08/01 10:22:55;;;;;;;0.10;0.10;;;21.60;99.90;;;;;;5072774;28;20061;-80
2022/08/01 10:25:22;;;;;;;0.00;0.00;;;21.60;99.90;;;;;;5089235;28;20045;-80
2022/08/01 10:27:51;;;;;;;0.17;0.08;;;21.50;99.90;;;;;;5088043;28;20037;-80
2022/08/01 10:30:17;;;;;;;0.03;0.03;;;21.60;99.90;;;;;;5088791;28;20547;-80
2022/08/01 10:32:45;;;;;;;0.00;0.00;;;21.60;99.90;;;;;;5072125;28;20049;-80
2022/08/01 10:35:17;;;;;;;1.52;0.40;;;21.70;99.90;;;;;;5071773;28;20103;-80
2022/08/01 10:37:45;;;;;;;0.28;0.08;;;21.80;99.90;;;;;;5088729;28;20053;-80
2022/08/01 10:40:15;;;;;;;0.03;0.03;;;22.00;99.90;;;;;;5072072;28;20080;-80
2022/08/01 10:42:45;;;;;;;0.00;0.00;;;22.10;99.90;;;;;;5071883;28;20084;-80
2022/08/01 10:45:13;;;;;;;0.10;0.10;;;22.20;99.90;;;;;;5071914;28;20400;-80
2022/08/01 10:48:03;;;;;;;0.20;0.20;;;22.30;99.90;;;;;;5038683;28;20052;-80
2022/08/01 10:50:33;;;;;;;0.00;0.00;;;22.30;99.90;;;;;;5071861;28;20049;-80
2022/08/01 10:53:23;;;;;;;0.00;0.00;;;22.20;99.90;;;;;;5071894;28;20055;-80
2022/08/01 10:56:03;;;;;;;0.47;0.25;;;22.20;99.90;;;;;;5088527;28;20098;-80
2022/08/01 10:58:37;;;;;;;1.75;0.43;;;22.20;99.90;;;;;;5088440;28;20045;-80
2022/08/01 11:01:25;;;;;;;0.00;0.00;;;22.30;99.90;;;;;;5088542;28;20060;-80
2022/08/01 11:04:04;;;;;;;0.20;0.20;;;22.50;99.90;;;;;;5071897;28;20048;-80
2022/08/01 11:06:32;;;;;;;0.10;0.10;;;22.50;99.90;;;;;;5088534;28;20061;-80
2022/08/01 11:09:04;;;;;;;0.00;0.00;;;22.50;99.90;;;;;;5088267;28;20045;-80
2022/08/01 11:11:29;;;;;;;0.00;0.00;;;22.60;99.90;;;;;;5088096;28;20488;-80
2022/08/01 11:14:06;;;;;;;0.00;0.00;;;22.60;99.90;;;;;;5088078;28;20049;-80
2022/08/01 11:16:35;;;;;;;0.00;0.00;;;22.40;99.90;;;;;;5088212;28;20048;-80
2022/08/01 11:19:01;;;;;;;0.00;0.00;;;22.30;99.90;;;;;;5087891;28;20056;-80
2022/08/01 11:21:51;;;;;;;0.08;0.00;;;22.40;99.90;;;;;;5087875;28;20117;-80
2022/08/01 11:24:46;;;;;;;6.13;0.10;;;22.40;99.90;;;;;;5070830;28;20122;-80
2022/08/01 11:27:25;;;;;;;2.10;0.10;;;22.70;99.90;;;;;;5070826;28;20095;-80
2022/08/01 11:30:09;;;;;;;0.65;0.22;;;22.80;99.90;;;;;;5087856;28;20131;-80
2022/08/01 11:32:51;;;;;;;0.00;0.00;;;22.80;99.90;;;;;;5071137;28;20061;-80
2022/08/01 11:35:20;;;;;;;0.00;0.00;;;22.90;99.90;;;;;;5070768;28;20048;-80
2022/08/01 11:37:51;;;;;;;0.00;0.00;;;22.80;99.90;;;;;;5087214;28;20095;-80
2022/08/01 11:40:24;;;;;;;0.38;0.20;;;22.70;99.90;;;;;;5087574;28;20131;-80
2022/08/01 11:43:11;;;;;;;0.00;0.00;;;22.70;99.90;;;;;;5071209;28;20073;-80
2022/08/01 11:45:56;;;;;;;0.00;0.00;;;22.70;99.90;;;;;;5087570;28;20145;-80
2022/08/01 11:48:27;;;;;;;0.00;0.00;;;22.80;99.90;;;;;;5088047;28;20041;-80
2022/08/01 11:50:57;;;;;;;0.00;0.00;;;22.90;98.20;;;;;;5087509;28;20562;-80
2022/08/01 11:53:22;;;;;;;0.00;0.00;;;22.80;99.90;;;;;;5070497;28;20041;-80
2022/08/01 11:55:52;;;;;;;0.47;0.17;;;22.60;98.50;;;;;;5070266;28;20480;-80
2022/08/01 11:58:25;;;;;;;0.00;0.00;;;22.50;99.90;;;;;;5087172;28;20045;-80
2022/08/01 12:00:57;;;;;;;0.00;0.00;;;22.40;99.90;;;;;;5070402;28;20049;-80
2022/08/01 12:03:31;;;;;;;0.00;0.00;;;22.30;99.30;;;;;;5070793;28;20060;-80
2022/08/01 12:05:58;;;;;;;0.00;0.00;;;22.30;99.90;;;;;;5069799;28;20099;-80
2022/08/01 12:08:28;;;;;;;2.05;0.60;;;22.40;99.90;;;;;;5070204;28;20068;-80
2022/08/01 12:10:54;;;;;;;0.08;0.08;;;22.50;99.90;;;;;;5070342;28;20110;-80
2022/08/01 12:13:21;;;;;;;0.15;0.10;;;22.50;99.50;;;;;;5070413;28;20045;-80
2022/08/01 12:15:47;;;;;;;0.00;0.00;;;22.40;97.90;;;;;;5069836;28;20132;-80
2022/08/01 12:18:13;;;;;;;0.00;0.00;;;22.30;99.60;;;;;;5069835;28;20123;-80
2022/08/01 12:20:43;;;;;;;0.00;0.00;;;22.30;99.90;;;;;;5070358;28;20084;-80
2022/08/01 12:23:12;;;;;;;0.03;0.00;;;22.40;99.90;;;;;;5087742;28;20107;-80
2022/08/01 12:25:39;;;;;;;0.30;0.20;;;22.40;99.50;;;;;;5087073;28;20044;-80
2022/08/01 12:28:10;;;;;;;0.10;0.00;;;22.30;99.90;;;;;;5070830;28;20053;-80
2022/08/01 12:30:37;;;;;;;0.00;0.00;;;22.30;99.90;;;;;;5086970;28;20037;-80
2022/08/01 12:33:05;;;;;;;0.00;0.00;;;22.30;98.50;;;;;;5070183;28;20099;-80
2022/08/01 12:35:32;;;;;;;0.10;0.00;;;22.30;99.90;;;;;;5087188;28;20091;-80
2022/08/01 12:38:03;;;;;;;0.10;0.10;;;22.40;98.30;;;;;;5070178;28;20044;-80
2022/08/01 12:40:33;;;;;;;0.00;0.00;;;22.40;98.60;;;;;;5070409;28;20037;-80
2022/08/01 12:43:09;;;;;;;0.00;0.00;;;22.40;98.50;;;;;;5070261;28;20396;-80
2022/08/01 12:45:46;;;;;;;0.00;0.00;;;22.50;99.80;;;;;;5070259;28;20064;-81
2022/08/01 12:48:15;;;;;;;0.00;0.00;;;22.50;98.20;;;;;;5070023;28;20060;-80
2022/08/01 12:50:46;;;;;;;0.00;0.00;;;22.50;99.90;;;;;;5036240;28;20076;-80
2022/08/01 12:53:14;;;;;;;0.00;0.00;;;22.50;99.20;;;;;;5086988;28;20051;-80
2022/08/01 12:55:50;;;;;;;0.00;0.00;;;22.50;99.20;;;;;;5086634;28;20045;-80
2022/08/01 12:58:18;;;;;;;0.25;0.10;;;22.70;99.90;;;;;;5086802;28;20048;-80